Flight Track Log - Related Links

Times and Time Zones

All times are in EDT time to prevent confusion due to time zone crossing. See the N543JB flight status page for this flight to view local times or setup timezone preferences in your user account.


Time Position Orientation Groundspeed Altitude Reporting Facility
EDT Latitude Longitude Course Direction KTS MPH feet Rate Location/Type
Wed 05:10:30 PM 43.4000 -80.3833 72° East 180 207 4,500  Level Toronto Center
Wed 05:11:29 PM 43.3667 -80.3500 144° Southeast 210 242 6,600 2,420 Climbing Toronto Center
Wed 05:12:29 PM 43.3667 -80.2500 90° East 240 276 9,300 2,500 Climbing Toronto Center
Wed 05:13:29 PM 43.3833 -80.1667 75° East 240 276 11,600 2,150 Climbing Toronto Center
Wed 05:14:29 PM 43.4000 -80.0667 77° East 250 288 13,600 2,000 Climbing Toronto Center
Wed 05:15:00 PM 43.6344 -79.8067 72° East  Level FlightAware Approximate
Wed 05:15:29 PM 43.4500 -80.0000 44° Northeast 260 299 15,600  Level Toronto Center
Wed 05:16:00 PM 43.6572 -79.7079 72° East  Level FlightAware Approximate
Wed 05:16:30 PM 43.4833 -79.9167 61° Northeast 270 311 17,800  Level Toronto Center
Wed 05:17:29 PM 43.5333 -79.8167 55° Northeast 290 334 19,300 1,866 Climbing Toronto Center
Wed 05:18:29 PM 43.5833 -79.7333 50° Northeast 300 345 21,500 2,050 Climbing Toronto Center
Wed 05:19:29 PM 43.6333 -79.6333 55° Northeast 300 345 23,400 1,900 Climbing Toronto Center
Wed 05:20:29 PM 43.6833 -79.5167 59° Northeast 320 368 25,300 1,686 Climbing Toronto Center
Wed 05:21:30 PM 43.7000 -79.4000 79° East 340 391 26,800 850 Climbing Toronto Center
Wed 05:22:29 PM 43.7167 -79.2667 80° East 360 414 27,000 101 Climbing Toronto Center
Wed 05:23:29 PM 43.7500 -79.1000 74° East 410 472 27,000  Level Toronto Center
Wed 05:24:29 PM 43.7833 -78.9333 74° East 430 495 27,000  Level Toronto Center
Wed 05:25:30 PM 43.8167 -78.7833 73° East 440 506 27,000  Level Toronto Center
Wed 05:26:29 PM 43.8500 -78.6167 74° East 450 518 27,000  Level Toronto Center
Wed 05:27:29 PM 43.8667 -78.4500 82° East 450 518 27,000 -650 Level Toronto Center
Wed 05:28:29 PM 43.9000 -78.2833 74° East 450 518 25,700 -1,850 Descending Toronto Center
Wed 05:29:29 PM 43.9333 -78.1000 76° East 440 506 23,300 -2,182 Descending Toronto Center
Wed 05:30:30 PM 43.9667 -77.9667 71° East 410 472 21,300 -2,150 Descending Toronto Center
Wed 05:31:29 PM 44.0000 -77.8000 74° East 400 460 19,000 -2,050 Descending Toronto Center
Wed 05:32:30 PM 44.0333 -77.6667 71° East 400 460 17,200 -1,934 Descending Toronto Center
Wed 05:33:30 PM 44.0500 -77.5500 79° East 370 426 15,100 -2,017 Descending Toronto Center
Wed 05:34:29 PM 44.0833 -77.4000 73° East 340 391 13,200 -1,850 Descending Toronto Center
Wed 05:35:30 PM 44.0833 -77.2833 90° East 340 391 11,400 -1,768 Descending Toronto Center
Wed 05:36:21 PM 44.1333 -77.2000 50° Northeast 330 380 9,900 -1,838 Descending Montreal Center
Wed 05:37:21 PM 44.1500 -77.0833 79° East 310 357 8,000 -1,500 Descending Montreal Center
Wed 05:38:21 PM 44.1833 -77.0000 61° Northeast 280 322 6,900 -1,050 Descending Montreal Center
Wed 05:39:21 PM 44.2000 -76.9000 77° East 270 311 5,900 -1,150 Descending Montreal Center
Wed 05:40:21 PM 44.2333 -76.7833 68° East 270 311 4,600 -1,400 Descending Montreal Center
Wed 05:41:21 PM 44.2667 -76.7167 55° Northeast 230 265 3,100 -1,200 Descending Montreal Center
Wed 05:42:21 PM 44.2833 -76.6500 71° East 210 242 2,200 -900 Descending Montreal Center
Wed 05:44:00 PM 44.2253 -76.5969 77° East  Level Estimated

Login

Don't have an account? Register now (free) for customized features, flight alerts, and more!